sensor_id;sensor_type;location;lat;lon;timestamp;P1;durP1;ratioP1;P2;durP2;ratioP2
66603;SDS011;53460;39.612;8.822;2024-03-22T00:01:42;6.95;;;4.05;;
66603;SDS011;53460;39.612;8.822;2024-03-22T00:04:07;7.28;;;3.50;;
66603;SDS011;53460;39.612;8.822;2024-03-22T00:06:33;7.25;;;4.05;;
66603;SDS011;53460;39.612;8.822;2024-03-22T00:08:58;4.72;;;3.90;;
66603;SDS011;53460;39.612;8.822;2024-03-22T00:11:24;4.50;;;4.07;;
66603;SDS011;53460;39.612;8.822;2024-03-22T00:13:50;4.85;;;4.28;;
66603;SDS011;53460;39.612;8.822;2024-03-22T00:16:16;6.20;;;4.05;;
66603;SDS011;53460;39.612;8.822;2024-03-22T00:18:42;5.00;;;4.57;;
66603;SDS011;53460;39.612;8.822;2024-03-22T00:21:07;5.30;;;4.55;;
66603;SDS011;53460;39.612;8.822;2024-03-22T00:23:33;6.20;;;4.65;;
66603;SDS011;53460;39.612;8.822;2024-03-22T00:25:59;7.38;;;4.30;;
66603;SDS011;53460;39.612;8.822;2024-03-22T00:28:25;6.90;;;4.10;;
66603;SDS011;53460;39.612;8.822;2024-03-22T00:30:50;4.90;;;4.30;;
66603;SDS011;53460;39.612;8.822;2024-03-22T00:33:16;4.75;;;4.35;;
66603;SDS011;53460;39.612;8.822;2024-03-22T00:35:42;5.93;;;4.50;;
66603;SDS011;53460;39.612;8.822;2024-03-22T00:38:07;8.02;;;4.30;;
66603;SDS011;53460;39.612;8.822;2024-03-22T00:40:33;7.32;;;3.90;;
66603;SDS011;53460;39.612;8.822;2024-03-22T00:42:59;4.88;;;4.47;;
66603;SDS011;53460;39.612;8.822;2024-03-22T00:45:24;5.53;;;4.32;;
66603;SDS011;53460;39.612;8.822;2024-03-22T00:47:51;5.13;;;4.28;;
66603;SDS011;53460;39.612;8.822;2024-03-22T00:50:17;5.38;;;4.40;;
66603;SDS011;53460;39.612;8.822;2024-03-22T00:52:42;4.72;;;4.22;;
66603;SDS011;53460;39.612;8.822;2024-03-22T00:55:08;4.30;;;3.90;;
66603;SDS011;53460;39.612;8.822;2024-03-22T00:57:34;4.80;;;4.18;;
66603;SDS011;53460;39.612;8.822;2024-03-22T00:59:59;5.25;;;3.88;;
66603;SDS011;53460;39.612;8.822;2024-03-22T01:02:25;4.45;;;4.05;;
66603;SDS011;53460;39.612;8.822;2024-03-22T01:04:51;4.88;;;4.35;;
66603;SDS011;53460;39.612;8.822;2024-03-22T01:07:16;5.07;;;4.57;;
66603;SDS011;53460;39.612;8.822;2024-03-22T01:09:42;4.20;;;3.80;;
66603;SDS011;53460;39.612;8.822;2024-03-22T01:12:09;4.10;;;3.65;;
66603;SDS011;53460;39.612;8.822;2024-03-22T01:14:35;5.50;;;3.83;;
66603;SDS011;53460;39.612;8.822;2024-03-22T01:17:01;4.32;;;3.95;;
66603;SDS011;53460;39.612;8.822;2024-03-22T01:19:27;5.05;;;4.03;;
66603;SDS011;53460;39.612;8.822;2024-03-22T01:21:53;4.57;;;4.07;;
66603;SDS011;53460;39.612;8.822;2024-03-22T01:24:18;4.55;;;4.13;;
66603;SDS011;53460;39.612;8.822;2024-03-22T01:26:44;4.40;;;4.00;;
66603;SDS011;53460;39.612;8.822;2024-03-22T01:29:10;4.38;;;3.30;;
66603;SDS011;53460;39.612;8.822;2024-03-22T01:31:35;3.83;;;3.38;;
66603;SDS011;53460;39.612;8.822;2024-03-22T01:34:01;4.78;;;4.05;;
66603;SDS011;53460;39.612;8.822;2024-03-22T01:36:27;5.90;;;3.63;;
66603;SDS011;53460;39.612;8.822;2024-03-22T01:38:52;6.63;;;3.70;;
66603;SDS011;53460;39.612;8.822;2024-03-22T01:41:18;14.13;;;4.20;;
66603;SDS011;53460;39.612;8.822;2024-03-22T01:43:43;4.78;;;3.75;;
66603;SDS011;53460;39.612;8.822;2024-03-22T01:46:09;5.80;;;3.20;;
66603;SDS011;53460;39.612;8.822;2024-03-22T01:48:35;4.10;;;3.70;;
66603;SDS011;53460;39.612;8.822;2024-03-22T01:51:01;4.20;;;3.83;;
66603;SDS011;53460;39.612;8.822;2024-03-22T01:53:27;4.15;;;3.75;;
66603;SDS011;53460;39.612;8.822;2024-03-22T01:55:53;9.60;;;3.42;;
66603;SDS011;53460;39.612;8.822;2024-03-22T01:58:19;10.65;;;3.47;;
66603;SDS011;53460;39.612;8.822;2024-03-22T02:00:45;4.30;;;3.90;;
66603;SDS011;53460;39.612;8.822;2024-03-22T02:03:11;4.93;;;4.53;;
66603;SDS011;53460;39.612;8.822;2024-03-22T02:05:37;4.82;;;4.32;;
66603;SDS011;53460;39.612;8.822;2024-03-22T02:08:03;4.30;;;3.90;;
66603;SDS011;53460;39.612;8.822;2024-03-22T02:10:29;5.43;;;4.57;;
66603;SDS011;53460;39.612;8.822;2024-03-22T02:12:54;5.07;;;4.35;;
66603;SDS011;53460;39.612;8.822;2024-03-22T02:15:20;4.50;;;4.10;;
66603;SDS011;53460;39.612;8.822;2024-03-22T02:17:46;4.78;;;4.10;;
66603;SDS011;53460;39.612;8.822;2024-03-22T02:20:12;6.90;;;3.92;;
66603;SDS011;53460;39.612;8.822;2024-03-22T02:22:37;4.72;;;4.30;;
66603;SDS011;53460;39.612;8.822;2024-03-22T02:25:03;4.47;;;3.35;;
66603;SDS011;53460;39.612;8.822;2024-03-22T02:27:29;3.80;;;3.50;;
66603;SDS011;53460;39.612;8.822;2024-03-22T02:29:55;5.20;;;3.25;;
66603;SDS011;53460;39.612;8.822;2024-03-22T02:32:21;3.60;;;3.30;;
66603;SDS011;53460;39.612;8.822;2024-03-22T02:34:47;3.35;;;3.05;;
66603;SDS011;53460;39.612;8.822;2024-03-22T02:37:13;4.70;;;3.38;;
66603;SDS011;53460;39.612;8.822;2024-03-22T02:39:38;3.80;;;3.15;;
66603;SDS011;53460;39.612;8.822;2024-03-22T02:42:04;3.22;;;2.92;;
66603;SDS011;53460;39.612;8.822;2024-03-22T02:44:30;3.33;;;3.10;;
66603;SDS011;53460;39.612;8.822;2024-03-22T02:46:55;6.35;;;3.67;;
66603;SDS011;53460;39.612;8.822;2024-03-22T02:49:21;4.90;;;2.90;;
66603;SDS011;53460;39.612;8.822;2024-03-22T02:51:46;3.80;;;2.90;;
66603;SDS011;53460;39.612;8.822;2024-03-22T02:54:12;2.88;;;2.67;;
66603;SDS011;53460;39.612;8.822;2024-03-22T02:56:38;6.53;;;2.90;;
66603;SDS011;53460;39.612;8.822;2024-03-22T02:59:04;3.28;;;2.90;;
66603;SDS011;53460;39.612;8.822;2024-03-22T03:01:29;3.35;;;2.97;;
66603;SDS011;53460;39.612;8.822;2024-03-22T03:03:55;3.50;;;3.15;;
66603;SDS011;53460;39.612;8.822;2024-03-22T03:06:21;3.78;;;3.08;;
66603;SDS011;53460;39.612;8.822;2024-03-22T03:08:46;3.53;;;3.22;;
66603;SDS011;53460;39.612;8.822;2024-03-22T03:11:13;3.60;;;3.30;;
66603;SDS011;53460;39.612;8.822;2024-03-22T03:13:39;4.97;;;3.25;;
66603;SDS011;53460;39.612;8.822;2024-03-22T03:16:05;3.50;;;2.90;;
66603;SDS011;53460;39.612;8.822;2024-03-22T03:18:31;3.50;;;2.80;;
66603;SDS011;53460;39.612;8.822;2024-03-22T03:20:56;3.65;;;2.95;;
66603;SDS011;53460;39.612;8.822;2024-03-22T03:23:22;3.88;;;3.50;;
66603;SDS011;53460;39.612;8.822;2024-03-22T03:25:47;3.33;;;3.03;;
66603;SDS011;53460;39.612;8.822;2024-03-22T03:28:13;5.35;;;3.35;;
66603;SDS011;53460;39.612;8.822;2024-03-22T03:30:39;6.40;;;3.47;;
66603;SDS011;53460;39.612;8.822;2024-03-22T03:33:05;3.47;;;3.05;;
66603;SDS011;53460;39.612;8.822;2024-03-22T03:35:30;3.92;;;3.42;;
66603;SDS011;53460;39.612;8.822;2024-03-22T03:37:56;4.78;;;3.50;;
66603;SDS011;53460;39.612;8.822;2024-03-22T03:40:22;3.28;;;2.97;;
66603;SDS011;53460;39.612;8.822;2024-03-22T03:42:53;3.42;;;3.13;;
66603;SDS011;53460;39.612;8.822;2024-03-22T03:45:19;6.20;;;3.22;;
66603;SDS011;53460;39.612;8.822;2024-03-22T03:47:44;3.25;;;2.95;;
66603;SDS011;53460;39.612;8.822;2024-03-22T03:50:10;3.60;;;3.30;;
66603;SDS011;53460;39.612;8.822;2024-03-22T03:52:37;4.07;;;3.65;;
66603;SDS011;53460;39.612;8.822;2024-03-22T03:55:03;3.90;;;3.38;;
66603;SDS011;53460;39.612;8.822;2024-03-22T03:57:29;3.20;;;2.95;;
66603;SDS011;53460;39.612;8.822;2024-03-22T03:59:54;3.38;;;3.13;;
66603;SDS011;53460;39.612;8.822;2024-03-22T04:02:20;3.78;;;3.25;;
66603;SDS011;53460;39.612;8.822;2024-03-22T04:04:46;4.72;;;3.83;;
66603;SDS011;53460;39.612;8.822;2024-03-22T04:07:12;3.38;;;3.08;;
66603;SDS011;53460;39.612;8.822;2024-03-22T04:09:37;3.92;;;3.45;;
66603;SDS011;53460;39.612;8.822;2024-03-22T04:12:03;4.78;;;3.83;;
66603;SDS011;53460;39.612;8.822;2024-03-22T04:14:29;4.72;;;3.80;;
66603;SDS011;53460;39.612;8.822;2024-03-22T04:16:54;3.42;;;3.13;;
66603;SDS011;53460;39.612;8.822;2024-03-22T04:19:21;4.78;;;3.60;;
66603;SDS011;53460;39.612;8.822;2024-03-22T04:21:47;6.95;;;3.65;;
66603;SDS011;53460;39.612;8.822;2024-03-22T04:24:14;5.60;;;3.55;;
66603;SDS011;53460;39.612;8.822;2024-03-22T04:26:39;5.85;;;3.28;;
66603;SDS011;53460;39.612;8.822;2024-03-22T04:29:05;3.28;;;2.97;;
66603;SDS011;53460;39.612;8.822;2024-03-22T04:31:31;2.95;;;2.58;;
66603;SDS011;53460;39.612;8.822;2024-03-22T04:33:56;3.15;;;2.85;;
66603;SDS011;53460;39.612;8.822;2024-03-22T04:36:22;3.13;;;2.92;;
66603;SDS011;53460;39.612;8.822;2024-03-22T04:38:48;3.13;;;2.83;;
66603;SDS011;53460;39.612;8.822;2024-03-22T04:41:13;4.10;;;3.05;;
66603;SDS011;53460;39.612;8.822;2024-03-22T04:43:39;3.83;;;3.05;;
66603;SDS011;53460;39.612;8.822;2024-03-22T04:46:05;4.75;;;2.70;;
66603;SDS011;53460;39.612;8.822;2024-03-22T04:48:30;3.67;;;2.67;;
66603;SDS011;53460;39.612;8.822;2024-03-22T04:50:56;3.10;;;2.80;;
66603;SDS011;53460;39.612;8.822;2024-03-22T04:53:22;3.00;;;2.63;;
66603;SDS011;53460;39.612;8.822;2024-03-22T04:55:48;4.20;;;3.03;;
66603;SDS011;53460;39.612;8.822;2024-03-22T04:58:15;4.03;;;3.05;;
66603;SDS011;53460;39.612;8.822;2024-03-22T05:00:44;4.05;;;2.88;;
66603;SDS011;53460;39.612;8.822;2024-03-22T05:03:10;3.42;;;2.88;;
66603;SDS011;53460;39.612;8.822;2024-03-22T05:05:36;3.67;;;3.30;;
66603;SDS011;53460;39.612;8.822;2024-03-22T05:08:03;4.18;;;3.13;;
66603;SDS011;53460;39.612;8.822;2024-03-22T05:10:29;5.25;;;3.40;;
66603;SDS011;53460;39.612;8.822;2024-03-22T05:12:55;3.63;;;3.15;;
66603;SDS011;53460;39.612;8.822;2024-03-22T05:15:21;3.30;;;3.00;;
66603;SDS011;53460;39.612;8.822;2024-03-22T05:17:48;3.88;;;3.58;;
66603;SDS011;53460;39.612;8.822;2024-03-22T05:20:14;3.97;;;3.55;;
66603;SDS011;53460;39.612;8.822;2024-03-22T05:22:40;3.83;;;3.40;;
66603;SDS011;53460;39.612;8.822;2024-03-22T05:25:06;3.67;;;3.38;;
66603;SDS011;53460;39.612;8.822;2024-03-22T05:27:33;4.22;;;3.08;;
66603;SDS011;53460;39.612;8.822;2024-03-22T05:29:59;3.45;;;3.15;;
66603;SDS011;53460;39.612;8.822;2024-03-22T05:32:25;4.38;;;3.22;;
66603;SDS011;53460;39.612;8.822;2024-03-22T05:34:52;4.43;;;2.53;;
66603;SDS011;53460;39.612;8.822;2024-03-22T05:37:18;3.22;;;2.85;;
66603;SDS011;53460;39.612;8.822;2024-03-22T05:39:43;4.22;;;3.20;;
66603;SDS011;53460;39.612;8.822;2024-03-22T05:42:09;4.97;;;3.40;;
66603;SDS011;53460;39.612;8.822;2024-03-22T05:44:35;3.10;;;2.80;;
66603;SDS011;53460;39.612;8.822;2024-03-22T05:47:00;3.88;;;2.97;;
66603;SDS011;53460;39.612;8.822;2024-03-22T05:49:26;4.70;;;3.25;;
66603;SDS011;53460;39.612;8.822;2024-03-22T05:51:52;3.00;;;2.70;;
66603;SDS011;53460;39.612;8.822;2024-03-22T05:54:18;4.68;;;3.08;;
66603;SDS011;53460;39.612;8.822;2024-03-22T05:56:43;11.73;;;3.00;;
66603;SDS011;53460;39.612;8.822;2024-03-22T05:59:09;5.43;;;2.78;;
66603;SDS011;53460;39.612;8.822;2024-03-22T06:01:35;8.43;;;2.92;;
66603;SDS011;53460;39.612;8.822;2024-03-22T06:04:01;5.78;;;3.00;;
66603;SDS011;53460;39.612;8.822;2024-03-22T06:06:27;4.57;;;2.58;;
66603;SDS011;53460;39.612;8.822;2024-03-22T06:08:52;2.85;;;2.65;;
66603;SDS011;53460;39.612;8.822;2024-03-22T06:11:19;3.83;;;2.70;;
66603;SDS011;53460;39.612;8.822;2024-03-22T06:13:47;4.20;;;2.60;;
66603;SDS011;53460;39.612;8.822;2024-03-22T06:16:12;4.97;;;3.00;;
66603;SDS011;53460;39.612;8.822;2024-03-22T06:18:38;2.85;;;2.63;;
66603;SDS011;53460;39.612;8.822;2024-03-22T06:21:04;2.75;;;2.47;;
66603;SDS011;53460;39.612;8.822;2024-03-22T06:23:30;4.13;;;2.88;;
66603;SDS011;53460;39.612;8.822;2024-03-22T06:25:56;6.25;;;2.83;;
66603;SDS011;53460;39.612;8.822;2024-03-22T06:28:22;4.80;;;3.33;;
66603;SDS011;53460;39.612;8.822;2024-03-22T06:30:48;4.07;;;2.95;;
66603;SDS011;53460;39.612;8.822;2024-03-22T06:33:14;4.82;;;3.13;;
66603;SDS011;53460;39.612;8.822;2024-03-22T06:35:43;4.03;;;3.33;;
66603;SDS011;53460;39.612;8.822;2024-03-22T06:38:08;3.67;;;3.10;;
66603;SDS011;53460;39.612;8.822;2024-03-22T06:40:34;27.08;;;15.75;;
66603;SDS011;53460;39.612;8.822;2024-03-22T06:43:00;7.75;;;6.95;;
66603;SDS011;53460;39.612;8.822;2024-03-22T06:45:25;13.30;;;12.10;;
66603;SDS011;53460;39.612;8.822;2024-03-22T06:47:51;7.03;;;4.30;;
66603;SDS011;53460;39.612;8.822;2024-03-22T06:50:17;11.20;;;7.22;;
66603;SDS011;53460;39.612;8.822;2024-03-22T06:52:43;38.53;;;21.08;;
66603;SDS011;53460;39.612;8.822;2024-03-22T06:55:09;30.95;;;16.65;;
66603;SDS011;53460;39.612;8.822;2024-03-22T06:57:36;10.15;;;7.05;;
66603;SDS011;53460;39.612;8.822;2024-03-22T07:00:03;7.43;;;5.43;;
66603;SDS011;53460;39.612;8.822;2024-03-22T07:02:29;4.80;;;3.72;;
66603;SDS011;53460;39.612;8.822;2024-03-22T07:04:55;4.75;;;3.72;;
66603;SDS011;53460;39.612;8.822;2024-03-22T07:07:20;3.03;;;2.45;;
66603;SDS011;53460;39.612;8.822;2024-03-22T07:09:46;5.22;;;2.92;;
66603;SDS011;53460;39.612;8.822;2024-03-22T07:12:13;4.20;;;3.20;;
66603;SDS011;53460;39.612;8.822;2024-03-22T07:14:38;3.13;;;2.40;;
66603;SDS011;53460;39.612;8.822;2024-03-22T07:17:04;4.55;;;2.95;;
66603;SDS011;53460;39.612;8.822;2024-03-22T07:19:30;5.25;;;4.65;;
66603;SDS011;53460;39.612;8.822;2024-03-22T07:21:56;4.57;;;3.40;;
66603;SDS011;53460;39.612;8.822;2024-03-22T07:24:24;5.15;;;3.88;;
66603;SDS011;53460;39.612;8.822;2024-03-22T07:26:51;6.65;;;4.32;;
66603;SDS011;53460;39.612;8.822;2024-03-22T07:29:16;3.70;;;3.20;;
66603;SDS011;53460;39.612;8.822;2024-03-22T07:31:42;4.25;;;3.58;;
66603;SDS011;53460;39.612;8.822;2024-03-22T07:34:08;4.10;;;2.95;;
66603;SDS011;53460;39.612;8.822;2024-03-22T07:36:37;6.20;;;2.88;;
66603;SDS011;53460;39.612;8.822;2024-03-22T07:39:03;3.30;;;2.75;;
66603;SDS011;53460;39.612;8.822;2024-03-22T07:41:31;5.50;;;3.20;;
66603;SDS011;53460;39.612;8.822;2024-03-22T07:43:58;3.33;;;2.88;;
66603;SDS011;53460;39.612;8.822;2024-03-22T07:46:25;5.72;;;3.50;;
66603;SDS011;53460;39.612;8.822;2024-03-22T07:48:52;4.40;;;3.30;;
66603;SDS011;53460;39.612;8.822;2024-03-22T07:51:18;3.78;;;2.58;;
66603;SDS011;53460;39.612;8.822;2024-03-22T07:53:44;7.18;;;2.90;;
66603;SDS011;53460;39.612;8.822;2024-03-22T07:56:10;3.80;;;2.58;;
66603;SDS011;53460;39.612;8.822;2024-03-22T07:58:36;4.07;;;2.78;;
66603;SDS011;53460;39.612;8.822;2024-03-22T08:01:02;2.67;;;2.28;;
66603;SDS011;53460;39.612;8.822;2024-03-22T08:03:28;3.40;;;2.30;;
66603;SDS011;53460;39.612;8.822;2024-03-22T08:05:54;2.88;;;2.60;;
66603;SDS011;53460;39.612;8.822;2024-03-22T08:08:19;2.78;;;2.00;;
66603;SDS011;53460;39.612;8.822;2024-03-22T08:10:45;2.88;;;2.20;;
66603;SDS011;53460;39.612;8.822;2024-03-22T08:13:11;3.75;;;2.45;;
66603;SDS011;53460;39.612;8.822;2024-03-22T08:15:36;4.32;;;2.03;;
66603;SDS011;53460;39.612;8.822;2024-03-22T08:18:02;1.85;;;1.63;;
66603;SDS011;53460;39.612;8.822;2024-03-22T08:20:28;3.90;;;2.03;;
66603;SDS011;53460;39.612;8.822;2024-03-22T08:22:55;2.17;;;1.60;;
66603;SDS011;53460;39.612;8.822;2024-03-22T08:25:20;1.70;;;1.42;;
66603;SDS011;53460;39.612;8.822;2024-03-22T08:27:48;2.33;;;1.30;;
66603;SDS011;53460;39.612;8.822;2024-03-22T08:30:13;1.65;;;1.40;;
66603;SDS011;53460;39.612;8.822;2024-03-22T08:32:39;1.90;;;1.30;;
66603;SDS011;53460;39.612;8.822;2024-03-22T08:35:05;1.88;;;1.38;;
66603;SDS011;53460;39.612;8.822;2024-03-22T08:37:31;3.05;;;1.48;;
66603;SDS011;53460;39.612;8.822;2024-03-22T08:39:58;2.65;;;1.35;;
66603;SDS011;53460;39.612;8.822;2024-03-22T08:42:24;1.40;;;1.17;;
66603;SDS011;53460;39.612;8.822;2024-03-22T08:44:49;1.40;;;1.25;;
66603;SDS011;53460;39.612;8.822;2024-03-22T08:47:15;1.70;;;1.40;;
66603;SDS011;53460;39.612;8.822;2024-03-22T08:49:41;3.17;;;1.65;;
66603;SDS011;53460;39.612;8.822;2024-03-22T08:52:11;1.77;;;1.40;;
66603;SDS011;53460;39.612;8.822;2024-03-22T08:54:36;3.10;;;1.45;;
66603;SDS011;53460;39.612;8.822;2024-03-22T08:57:02;1.48;;;1.30;;
66603;SDS011;53460;39.612;8.822;2024-03-22T08:59:28;3.47;;;1.52;;
66603;SDS011;53460;39.612;8.822;2024-03-22T09:01:53;4.03;;;1.50;;
66603;SDS011;53460;39.612;8.822;2024-03-22T09:04:19;1.45;;;1.25;;
66603;SDS011;53460;39.612;8.822;2024-03-22T09:06:45;2.22;;;1.42;;
66603;SDS011;53460;39.612;8.822;2024-03-22T09:09:11;2.60;;;1.33;;
66603;SDS011;53460;39.612;8.822;2024-03-22T09:11:36;2.85;;;1.30;;
66603;SDS011;53460;39.612;8.822;2024-03-22T09:14:02;2.90;;;1.45;;
66603;SDS011;53460;39.612;8.822;2024-03-22T09:16:29;5.28;;;1.15;;
66603;SDS011;53460;39.612;8.822;2024-03-22T09:18:55;4.18;;;1.60;;
66603;SDS011;53460;39.612;8.822;2024-03-22T09:21:21;1.73;;;1.20;;
66603;SDS011;53460;39.612;8.822;2024-03-22T09:23:47;2.22;;;1.40;;
66603;SDS011;53460;39.612;8.822;2024-03-22T09:26:13;1.25;;;1.15;;
66603;SDS011;53460;39.612;8.822;2024-03-22T09:28:39;2.92;;;1.35;;
66603;SDS011;53460;39.612;8.822;2024-03-22T09:31:05;1.40;;;1.13;;
66603;SDS011;53460;39.612;8.822;2024-03-22T09:33:32;2.67;;;1.40;;
66603;SDS011;53460;39.612;8.822;2024-03-22T09:35:59;1.80;;;1.20;;
66603;SDS011;53460;39.612;8.822;2024-03-22T09:38:24;2.00;;;1.55;;
66603;SDS011;53460;39.612;8.822;2024-03-22T09:40:50;2.75;;;1.67;;
66603;SDS011;53460;39.612;8.822;2024-03-22T09:43:19;5.00;;;1.50;;
66603;SDS011;53460;39.612;8.822;2024-03-22T09:45:47;3.03;;;1.42;;
66603;SDS011;53460;39.612;8.822;2024-03-22T09:48:18;2.15;;;1.30;;
66603;SDS011;53460;39.612;8.822;2024-03-22T09:50:45;3.88;;;2.10;;
66603;SDS011;53460;39.612;8.822;2024-03-22T09:53:18;4.75;;;1.67;;
66603;SDS011;53460;39.612;8.822;2024-03-22T09:55:49;3.22;;;1.77;;
66603;SDS011;53460;39.612;8.822;2024-03-22T09:58:17;1.60;;;1.27;;
66603;SDS011;53460;39.612;8.822;2024-03-22T10:00:43;2.20;;;1.50;;
66603;SDS011;53460;39.612;8.822;2024-03-22T10:03:12;3.17;;;1.42;;
66603;SDS011;53460;39.612;8.822;2024-03-22T10:05:37;4.75;;;1.30;;
66603;SDS011;53460;39.612;8.822;2024-03-22T10:08:03;1.88;;;1.23;;
66603;SDS011;53460;39.612;8.822;2024-03-22T10:10:31;1.65;;;1.17;;
66603;SDS011;53460;39.612;8.822;2024-03-22T10:12:59;2.90;;;1.58;;
66603;SDS011;53460;39.612;8.822;2024-03-22T10:15:26;2.88;;;1.08;;
66603;SDS011;53460;39.612;8.822;2024-03-22T10:17:51;1.75;;;1.10;;
66603;SDS011;53460;39.612;8.822;2024-03-22T10:20:19;1.75;;;1.15;;
66603;SDS011;53460;39.612;8.822;2024-03-22T10:22:48;3.70;;;1.40;;
66603;SDS011;53460;39.612;8.822;2024-03-22T10:25:20;3.45;;;1.55;;
66603;SDS011;53460;39.612;8.822;2024-03-22T10:27:46;2.25;;;1.10;;
66603;SDS011;53460;39.612;8.822;2024-03-22T10:30:13;1.15;;;1.05;;
66603;SDS011;53460;39.612;8.822;2024-03-22T10:32:44;2.83;;;1.10;;
66603;SDS011;53460;39.612;8.822;2024-03-22T10:35:13;1.63;;;1.10;;
66603;SDS011;53460;39.612;8.822;2024-03-22T10:37:40;4.55;;;1.42;;
66603;SDS011;53460;39.612;8.822;2024-03-22T10:40:07;6.15;;;1.42;;
66603;SDS011;53460;39.612;8.822;2024-03-22T10:42:38;2.22;;;1.10;;
66603;SDS011;53460;39.612;8.822;2024-03-22T10:45:05;1.45;;;1.08;;
66603;SDS011;53460;39.612;8.822;2024-03-22T10:47:33;2.08;;;1.10;;
66603;SDS011;53460;39.612;8.822;2024-03-22T10:50:07;1.95;;;1.10;;
66603;SDS011;53460;39.612;8.822;2024-03-22T10:52:35;2.05;;;1.00;;
66603;SDS011;53460;39.612;8.822;2024-03-22T10:55:04;2.47;;;1.35;;
66603;SDS011;53460;39.612;8.822;2024-03-22T10:57:32;5.20;;;1.40;;
66603;SDS011;53460;39.612;8.822;2024-03-22T11:00:11;3.65;;;1.50;;
66603;SDS011;53460;39.612;8.822;2024-03-22T11:02:37;2.35;;;1.23;;
66603;SDS011;53460;39.612;8.822;2024-03-22T11:05:06;2.05;;;1.13;;
66603;SDS011;53460;39.612;8.822;2024-03-22T11:07:32;1.52;;;1.08;;
66603;SDS011;53460;39.612;8.822;2024-03-22T11:10:01;2.28;;;1.70;;
66603;SDS011;53460;39.612;8.822;2024-03-22T11:12:31;1.75;;;1.45;;
66603;SDS011;53460;39.612;8.822;2024-03-22T11:14:59;1.77;;;1.10;;
66603;SDS011;53460;39.612;8.822;2024-03-22T11:17:25;3.38;;;1.17;;
66603;SDS011;53460;39.612;8.822;2024-03-22T11:19:51;1.20;;;1.10;;
66603;SDS011;53460;39.612;8.822;2024-03-22T11:22:17;1.35;;;1.13;;
66603;SDS011;53460;39.612;8.822;2024-03-22T11:24:43;2.13;;;1.92;;
66603;SDS011;53460;39.612;8.822;2024-03-22T11:27:10;5.50;;;1.45;;
66603;SDS011;53460;39.612;8.822;2024-03-22T11:29:38;3.25;;;1.20;;
66603;SDS011;53460;39.612;8.822;2024-03-22T11:32:06;2.15;;;1.48;;
66603;SDS011;53460;39.612;8.822;2024-03-22T11:34:35;2.60;;;1.52;;
66603;SDS011;53460;39.612;8.822;2024-03-22T11:37:03;1.50;;;0.90;;
66603;SDS011;53460;39.612;8.822;2024-03-22T11:39:29;1.95;;;1.17;;
66603;SDS011;53460;39.612;8.822;2024-03-22T11:41:55;1.90;;;1.10;;
66603;SDS011;53460;39.612;8.822;2024-03-22T11:44:21;1.70;;;1.30;;
66603;SDS011;53460;39.612;8.822;2024-03-22T11:46:50;4.75;;;1.20;;
66603;SDS011;53460;39.612;8.822;2024-03-22T11:49:17;2.45;;;1.02;;
66603;SDS011;53460;39.612;8.822;2024-03-22T11:51:44;1.10;;;0.95;;
66603;SDS011;53460;39.612;8.822;2024-03-22T11:54:10;2.65;;;1.20;;
66603;SDS011;53460;39.612;8.822;2024-03-22T11:56:36;1.38;;;1.10;;
66603;SDS011;53460;39.612;8.822;2024-03-22T11:59:06;1.30;;;1.13;;
66603;SDS011;53460;39.612;8.822;2024-03-22T12:01:32;2.35;;;1.35;;
66603;SDS011;53460;39.612;8.822;2024-03-22T12:03:59;9.85;;;3.40;;
66603;SDS011;53460;39.612;8.822;2024-03-22T12:06:26;7.38;;;3.97;;
66603;SDS011;53460;39.612;8.822;2024-03-22T12:08:52;8.05;;;3.85;;
66603;SDS011;53460;39.612;8.822;2024-03-22T12:11:18;3.38;;;1.80;;
66603;SDS011;53460;39.612;8.822;2024-03-22T12:13:44;1.73;;;1.05;;
66603;SDS011;53460;39.612;8.822;2024-03-22T12:16:11;1.98;;;0.95;;
66603;SDS011;53460;39.612;8.822;2024-03-22T12:18:37;4.57;;;2.70;;
66603;SDS011;53460;39.612;8.822;2024-03-22T12:21:02;1.67;;;1.30;;
66603;SDS011;53460;39.612;8.822;2024-03-22T12:23:28;3.72;;;1.23;;
66603;SDS011;53460;39.612;8.822;2024-03-22T12:25:54;2.28;;;1.13;;
66603;SDS011;53460;39.612;8.822;2024-03-22T12:28:21;2.17;;;1.20;;
66603;SDS011;53460;39.612;8.822;2024-03-22T12:30:47;3.28;;;1.13;;
66603;SDS011;53460;39.612;8.822;2024-03-22T12:33:14;1.45;;;1.02;;
66603;SDS011;53460;39.612;8.822;2024-03-22T12:35:40;3.28;;;1.40;;
66603;SDS011;53460;39.612;8.822;2024-03-22T12:38:06;3.40;;;1.27;;
66603;SDS011;53460;39.612;8.822;2024-03-22T12:40:34;2.88;;;1.30;;
66603;SDS011;53460;39.612;8.822;2024-03-22T12:42:59;1.83;;;1.25;;
66603;SDS011;53460;39.612;8.822;2024-03-22T12:45:25;3.42;;;1.20;;
66603;SDS011;53460;39.612;8.822;2024-03-22T12:47:51;1.95;;;1.08;;
66603;SDS011;53460;39.612;8.822;2024-03-22T12:50:17;1.23;;;1.02;;
66603;SDS011;53460;39.612;8.822;2024-03-22T12:52:43;2.38;;;1.35;;
66603;SDS011;53460;39.612;8.822;2024-03-22T12:55:10;2.15;;;1.30;;
66603;SDS011;53460;39.612;8.822;2024-03-22T12:57:36;1.77;;;1.05;;
66603;SDS011;53460;39.612;8.822;2024-03-22T13:00:02;2.10;;;1.30;;
66603;SDS011;53460;39.612;8.822;2024-03-22T13:02:30;3.10;;;1.08;;
66603;SDS011;53460;39.612;8.822;2024-03-22T13:04:57;1.42;;;1.30;;
66603;SDS011;53460;39.612;8.822;2024-03-22T13:07:23;3.92;;;1.80;;
66603;SDS011;53460;39.612;8.822;2024-03-22T13:09:50;3.05;;;1.10;;
66603;SDS011;53460;39.612;8.822;2024-03-22T13:12:16;3.47;;;1.25;;
66603;SDS011;53460;39.612;8.822;2024-03-22T13:14:41;2.60;;;1.20;;
66603;SDS011;53460;39.612;8.822;2024-03-22T13:17:08;1.67;;;1.10;;
66603;SDS011;53460;39.612;8.822;2024-03-22T13:19:34;1.27;;;1.15;;
66603;SDS011;53460;39.612;8.822;2024-03-22T13:22:00;1.58;;;1.13;;
66603;SDS011;53460;39.612;8.822;2024-03-22T13:24:25;1.52;;;1.17;;
66603;SDS011;53460;39.612;8.822;2024-03-22T13:26:51;4.18;;;1.35;;
66603;SDS011;53460;39.612;8.822;2024-03-22T13:29:17;1.83;;;1.40;;
66603;SDS011;53460;39.612;8.822;2024-03-22T13:31:43;2.70;;;1.25;;
66603;SDS011;53460;39.612;8.822;2024-03-22T13:34:08;2.25;;;1.20;;
66603;SDS011;53460;39.612;8.822;2024-03-22T13:36:34;2.45;;;1.65;;
66603;SDS011;53460;39.612;8.822;2024-03-22T13:39:03;5.20;;;1.83;;
66603;SDS011;53460;39.612;8.822;2024-03-22T13:41:29;1.50;;;1.33;;
66603;SDS011;53460;39.612;8.822;2024-03-22T13:43:55;1.90;;;1.38;;
66603;SDS011;53460;39.612;8.822;2024-03-22T13:46:21;2.70;;;1.98;;
66603;SDS011;53460;39.612;8.822;2024-03-22T13:48:47;3.53;;;1.73;;
66603;SDS011;53460;39.612;8.822;2024-03-22T13:51:13;3.55;;;1.30;;
66603;SDS011;53460;39.612;8.822;2024-03-22T13:53:38;3.35;;;1.35;;
66603;SDS011;53460;39.612;8.822;2024-03-22T13:56:04;2.95;;;1.33;;
66603;SDS011;53460;39.612;8.822;2024-03-22T13:58:30;3.08;;;1.40;;
66603;SDS011;53460;39.612;8.822;2024-03-22T14:00:55;3.42;;;1.40;;
66603;SDS011;53460;39.612;8.822;2024-03-22T14:03:21;3.22;;;1.25;;
66603;SDS011;53460;39.612;8.822;2024-03-22T14:05:47;3.85;;;1.60;;
66603;SDS011;53460;39.612;8.822;2024-03-22T14:08:13;2.58;;;1.48;;
66603;SDS011;53460;39.612;8.822;2024-03-22T14:10:40;2.47;;;1.25;;
66603;SDS011;53460;39.612;8.822;2024-03-22T14:13:06;2.53;;;1.50;;
66603;SDS011;53460;39.612;8.822;2024-03-22T14:15:33;2.70;;;1.40;;
66603;SDS011;53460;39.612;8.822;2024-03-22T14:18:03;3.67;;;1.30;;
66603;SDS011;53460;39.612;8.822;2024-03-22T14:20:30;5.20;;;1.30;;
66603;SDS011;53460;39.612;8.822;2024-03-22T14:22:57;1.95;;;1.30;;
66603;SDS011;53460;39.612;8.822;2024-03-22T14:25:22;3.42;;;1.05;;
66603;SDS011;53460;39.612;8.822;2024-03-22T14:27:48;2.50;;;1.20;;
66603;SDS011;53460;39.612;8.822;2024-03-22T14:30:14;1.92;;;1.10;;
66603;SDS011;53460;39.612;8.822;2024-03-22T14:32:40;2.17;;;1.25;;
66603;SDS011;53460;39.612;8.822;2024-03-22T14:35:06;1.50;;;1.10;;
66603;SDS011;53460;39.612;8.822;2024-03-22T14:37:32;1.65;;;1.00;;
66603;SDS011;53460;39.612;8.822;2024-03-22T14:39:58;1.38;;;1.00;;
66603;SDS011;53460;39.612;8.822;2024-03-22T14:42:25;6.13;;;1.40;;